Time;durP1;ratioP1;P1;durP2;ratioP2;P2;SDS_P1;SDS_P2;PMS_P1;PMS_P2;Temp;Humidity;BMP_temperature;BMP_pressure;BME280_temperature;BME280_humidity;BME280_pressure;Samples;Min_cycle;Max_cycle;Signal;HPM_P1;HPM_P2
2022/11/03 00:01:48;;;;;;;7.75;1.60;;;8.50;99.90;;;7.11;98.04;101035.25;5049102;28;20409;-76
2022/11/03 00:04:18;;;;;;;4.93;1.30;;;8.50;99.90;;;7.11;98.60;101037.97;5049016;28;20064;-76
2022/11/03 00:06:52;;;;;;;8.93;1.92;;;8.40;99.90;;;7.15;98.26;101033.84;5049407;28;20164;-76
2022/11/03 00:09:21;;;;;;;10.50;1.65;;;8.50;99.90;;;7.04;99.45;101038.69;5049495;28;20037;-76
2022/11/03 00:11:49;;;;;;;9.02;1.50;;;8.40;99.90;;;6.99;99.41;101027.56;5054001;28;20044;-77
2022/11/03 00:14:16;;;;;;;6.82;1.50;;;8.40;99.90;;;7.02;99.44;101027.19;5052931;28;20029;-76
2022/11/03 00:16:43;;;;;;;7.53;1.63;;;8.40;99.90;;;7.13;99.04;101022.34;5053004;28;20469;-76
2022/11/03 00:19:10;;;;;;;10.13;1.95;;;8.50;99.90;;;7.05;100.00;101023.28;5049205;28;20037;-77
2022/11/03 00:21:37;;;;;;;7.03;1.75;;;8.40;99.90;;;7.08;100.00;101020.19;5049732;28;20493;-77
2022/11/03 00:24:04;;;;;;;6.35;1.50;;;8.50;99.90;;;7.14;100.00;101021.31;5048903;28;20098;-76
2022/11/03 00:26:33;;;;;;;9.80;1.60;;;8.50;99.90;;;7.08;100.00;101019.34;5049243;28;20039;-76
2022/11/03 00:29:05;;;;;;;10.52;2.38;;;8.50;99.90;;;7.05;100.00;101017.84;5048697;28;20120;-76
2022/11/03 00:31:34;;;;;;;8.45;1.83;;;8.40;99.90;;;7.11;100.00;101011.69;5048442;28;20052;-76
2022/11/03 00:34:02;;;;;;;4.85;1.40;;;8.40;99.90;;;7.07;100.00;101002.22;5048537;28;20133;-76
2022/11/03 00:36:38;;;;;;;7.45;1.55;;;8.50;99.90;;;7.08;100.00;101011.19;5048585;28;20029;-76
2022/11/03 00:39:05;;;;;;;6.82;1.88;;;8.40;99.90;;;7.10;100.00;101011.84;5050475;28;20041;-76
2022/11/03 00:41:32;;;;;;;8.02;1.50;;;8.40;99.90;;;7.30;100.00;101007.56;5053636;28;20505;-76
2022/11/03 00:43:58;;;;;;;5.35;1.73;;;8.60;99.90;;;7.38;99.24;101003.06;5050859;28;20149;-76
2022/11/03 00:46:26;;;;;;;5.05;1.50;;;8.70;99.90;;;7.36;99.50;100999.72;5052914;28;20047;-76
2022/11/03 00:48:51;;;;;;;10.27;1.48;;;8.70;99.90;;;7.47;98.68;100999.25;5048752;28;20453;-75
2022/11/03 00:51:21;;;;;;;6.13;1.45;;;8.80;99.90;;;7.52;98.10;100996.81;5048864;28;20081;-76
2022/11/03 00:53:53;;;;;;;5.53;1.40;;;8.80;99.90;;;7.37;99.50;100996.81;5049564;28;20127;-76
2022/11/03 00:56:23;;;;;;;8.10;1.55;;;8.80;99.90;;;7.28;100.00;100987.91;5048431;28;20053;-75
2022/11/03 00:58:50;;;;;;;5.85;1.55;;;8.70;99.90;;;7.12;100.00;100982.66;5053716;28;20037;-75
2022/11/03 01:01:20;;;;;;;8.60;1.70;;;8.60;99.90;;;7.02;100.00;100993.78;5056915;28;20036;-76
2022/11/03 01:06:49;;;;;;;3.08;1.13;;;8.50;99.90;;;7.14;100.00;100983.31;5055109;28;20036;-76
2022/11/03 01:09:22;;;;;;;8.05;1.70;;;8.50;99.90;;;7.11;100.00;100984.56;5048786;28;21909;-76
2022/11/03 01:12:15;;;;;;;8.73;1.65;;;8.50;99.90;;;7.28;100.00;100985.22;5049861;28;20129;-77
2022/11/03 01:14:48;;;;;;;10.15;2.05;;;8.60;99.90;;;7.23;100.00;100979.50;5051575;28;20040;-75
2022/11/03 01:17:26;;;;;;;9.35;1.73;;;8.60;99.90;;;7.17;100.00;100974.84;5052817;28;20031;-76
2022/11/03 01:19:53;;;;;;;6.87;1.80;;;8.60;99.90;;;7.29;100.00;100978.75;5050268;28;20025;-76
2022/11/03 01:22:20;;;;;;;6.70;1.60;;;8.60;99.90;;;7.32;100.00;100964.81;5052671;28;20377;-76
2022/11/03 01:24:46;;;;;;;7.07;2.63;;;8.70;99.90;;;7.42;100.00;100961.81;5053579;28;20032;-76
2022/11/03 01:27:19;;;;;;;8.93;1.30;;;8.70;99.90;;;7.54;98.87;100956.75;5054901;28;20040;-77
2022/11/03 01:29:45;;;;;;;9.15;1.55;;;8.80;99.90;;;7.64;97.48;100956.44;5052175;28;20033;-76
2022/11/03 01:32:12;;;;;;;11.85;1.80;;;8.90;99.90;;;7.77;96.27;100950.34;5052321;28;20160;-76
2022/11/03 01:34:38;;;;;;;8.50;1.55;;;9.10;99.90;;;7.81;95.27;100942.63;5052002;28;20021;-75
2022/11/03 01:37:04;;;;;;;10.98;1.50;;;9.20;99.90;;;7.84;95.59;100950.44;5051519;28;20031;-76
2022/11/03 01:39:30;;;;;;;7.45;1.58;;;9.20;99.90;;;7.92;94.33;100940.25;5056462;28;20473;-75
2022/11/03 01:41:55;;;;;;;6.95;1.63;;;9.30;99.90;;;8.00;93.11;100938.47;5052080;28;20028;-76
2022/11/03 01:44:28;;;;;;;8.10;2.00;;;9.30;99.90;;;7.98;93.48;100922.34;5056814;28;20029;-75
2022/11/03 01:47:29;;;;;;;3.70;1.02;;;9.30;99.90;;;8.15;91.69;100925.66;5051776;28;20067;-76
2022/11/03 01:50:07;;;;;;;8.27;1.70;;;9.50;99.90;;;8.12;92.33;100914.34;5051439;28;20612;-76
2022/11/03 01:52:51;;;;;;;6.50;1.73;;;9.50;99.90;;;8.12;92.26;100904.31;5051235;28;20138;-76
2022/11/03 01:55:34;;;;;;;12.75;2.13;;;9.50;99.90;;;8.15;91.57;100912.06;5051767;28;20143;-76
2022/11/03 01:58:12;;;;;;;8.20;1.40;;;9.50;99.90;;;8.17;91.81;100912.72;5058478;28;20079;-76
2022/11/03 02:00:42;;;;;;;7.55;1.65;;;9.50;99.90;;;8.12;91.91;100904.31;5051890;28;20104;-75
2022/11/03 02:03:09;;;;;;;6.15;1.50;;;9.50;99.90;;;8.03;93.54;100894.63;5051971;28;20064;-75
2022/11/03 02:05:36;;;;;;;5.22;1.60;;;9.50;99.90;;;7.68;98.86;100889.00;5060902;28;20469;-75
2022/11/03 02:08:21;;;;;;;5.53;1.58;;;9.20;99.90;;;7.41;100.00;100891.41;5051205;28;20043;-76
2022/11/03 02:10:50;;;;;;;8.02;2.22;;;9.00;99.90;;;7.12;100.00;100890.41;5051785;28;20029;-76
2022/11/03 02:13:24;;;;;;;7.50;2.20;;;8.70;99.90;;;6.95;100.00;100901.47;5051521;28;20025;-77
2022/11/03 02:15:55;;;;;;;9.88;2.47;;;8.50;99.90;;;6.95;100.00;100901.47;5051207;28;20028;-77
2022/11/03 02:18:28;;;;;;;6.88;1.80;;;8.40;99.90;;;7.05;100.00;100888.44;5051715;28;20104;-76
2022/11/03 02:21:27;;;;;;;7.75;1.95;;;8.40;99.90;;;7.08;100.00;100889.09;5051291;28;20102;-77
2022/11/03 02:24:07;;;;;;;8.95;2.22;;;8.40;99.90;;;7.07;100.00;100899.13;5057698;28;20029;-75
2022/11/03 02:26:34;;;;;;;7.97;1.70;;;8.50;99.90;;;7.06;100.00;100889.31;5050900;28;20041;-76
2022/11/03 02:29:00;;;;;;;10.68;2.17;;;8.50;99.90;;;7.14;100.00;100891.06;5054436;28;20028;-76
2022/11/03 02:31:36;;;;;;;7.82;1.85;;;8.50;99.90;;;7.10;100.00;100878.91;5050780;28;20130;-76
2022/11/03 02:34:44;;;;;;;7.38;2.30;;;8.60;99.90;;;7.19;100.00;100880.50;5050822;28;20027;-77
2022/11/03 02:37:19;;;;;;;7.70;1.50;;;8.60;99.90;;;7.21;100.00;100875.72;5050682;28;20025;-77
2022/11/03 02:40:10;;;;;;;5.78;1.60;;;8.60;99.90;;;7.34;100.00;100880.50;5056783;28;20028;-77
2022/11/03 02:42:38;;;;;;;9.27;1.65;;;8.60;99.90;;;7.45;99.96;100881.88;5060330;28;20464;-77
2022/11/03 02:45:08;;;;;;;7.90;1.63;;;8.70;99.90;;;7.48;98.97;100873.34;5050409;28;20327;-76
2022/11/03 02:47:38;;;;;;;9.55;1.50;;;8.80;99.90;;;7.59;97.87;100880.16;5053777;28;20036;-77
2022/11/03 02:50:09;;;;;;;9.25;2.05;;;8.90;99.90;;;7.67;96.97;100873.75;5049959;28;20036;-77
2022/11/03 02:52:48;;;;;;;8.80;1.58;;;8.90;99.90;;;7.76;95.92;100872.59;5055956;28;20025;-76
2022/11/03 02:55:31;;;;;;;;;;;9.10;99.90;;;7.72;95.85;100863.16;5057458;28;20059;-77
2022/11/03 02:58:31;;;;;;;;;;;9.10;99.90;;;7.77;94.97;100872.41;5050942;28;19960;-76
2022/11/03 03:01:17;;;;;;;;;;;9.10;99.90;;;7.82;94.83;100866.41;5050797;28;19958;-77
2022/11/03 03:03:53;;;;;;;;;;;9.20;99.90;;;7.70;96.00;100863.34;5050876;28;19912;-77
2022/11/03 03:06:27;;;;;;;;;;;9.10;99.90;;;7.65;96.49;100862.22;5050472;28;19917;-76
2022/11/03 03:08:58;;;;;;;;;;;9.00;99.90;;;7.55;97.70;100859.81;5057432;28;20022;-76
2022/11/03 03:11:36;;;;;;;;;;;9.00;99.90;;;7.44;97.41;100842.19;5045564;28;19925;-76
2022/11/03 03:14:10;;;;;;;;;;;8.90;99.90;;;7.65;95.93;100854.09;5049758;28;19920;-76
2022/11/03 03:17:18;;;;;;;;;;;8.90;99.90;;;7.76;95.33;100845.44;5050121;28;22016;-76
2022/11/03 03:19:53;;;;;;;;;;;9.00;99.90;;;7.77;95.20;100831.66;5052138;28;20061;-76
2022/11/03 03:22:27;;;;;;;;;;;9.10;99.90;;;7.71;95.58;100829.72;5052675;28;19960;-76
2022/11/03 03:25:11;;;;;;;;;;;9.10;99.90;;;7.72;95.05;100822.44;5049988;28;19966;-77
2022/11/03 03:27:41;;;;;;;;;;;9.10;99.90;;;7.79;94.81;100817.91;5056744;28;19924;-77
2022/11/03 03:30:08;;;;;;;;;;;9.20;99.90;;;7.75;94.75;100812.00;5050007;28;19913;-77
2022/11/03 03:32:37;;;;;;;;;;;9.10;99.90;;;7.85;93.87;100813.56;5049913;28;20088;-76
2022/11/03 03:35:07;;;;;;;;;;;9.20;99.90;;;7.82;94.11;100805.78;5049750;28;20407;-77
2022/11/03 03:37:41;;;;;;;;;;;9.20;99.90;;;7.66;95.44;100810.47;5049902;28;20461;-76
2022/11/03 03:40:11;;;;;;;;;;;9.10;99.90;;;7.48;97.64;100806.31;5049867;28;20366;-77
2022/11/03 03:42:40;;;;;;;;;;;8.90;99.90;;;7.28;99.64;100813.38;5050187;28;20250;-77
2022/11/03 03:45:09;;;;;;;;;;;8.70;99.90;;;7.04;100.00;100804.56;5050065;28;19916;-78
2022/11/03 03:47:35;;;;;;;;;;;8.50;99.90;;;6.97;100.00;100807.19;5049525;28;19955;-77
2022/11/03 03:50:01;;;;;;;;;;;8.40;99.90;;;6.84;100.00;100804.28;5031952;28;20595;-77
2022/11/03 03:52:28;;;;;;;;;;;8.20;99.90;;;6.75;100.00;100793.53;5050363;28;19916;-77
2022/11/03 03:54:54;;;;;;;;;;;8.10;99.90;;;6.65;100.00;100793.00;5049989;28;19922;-76
2022/11/03 03:57:23;;;;;;;;;;;8.00;99.90;;;6.57;100.00;100793.94;5049164;28;20489;-76
2022/11/03 03:59:49;;;;;;;;;;;7.90;99.90;;;6.48;100.00;100779.63;5054933;28;19951;-76
2022/11/03 04:02:15;;;;;;;;;;;7.90;99.90;;;6.51;100.00;100781.13;5049142;28;19919;-76
2022/11/03 04:04:41;;;;;;;;;;;7.80;99.90;;;6.48;100.00;100778.75;5049549;28;19912;-77
2022/11/03 04:09:51;;;;;;;;;;;7.90;99.90;;;6.58;100.00;100778.47;5048870;28;20070;-76
2022/11/03 04:23:17;;;;;;;;;;;8.20;99.90;;;6.91;100.00;100761.84;5049101;28;19959;-76
2022/11/03 04:25:53;;;;;;;;;;;8.30;99.90;;;6.95;100.00;100751.44;5049206;28;19913;-75
2022/11/03 04:28:18;;;;;;;;;;;8.30;99.90;;;7.03;100.00;100735.06;5048144;28;19916;-76
2022/11/03 04:30:44;;;;;;;;;;;8.40;99.90;;;7.09;100.00;100744.28;5054843;28;19912;-76
2022/11/03 04:33:16;;;;;;;;;;;8.40;99.90;;;7.16;100.00;100734.34;5049495;28;19913;-76
2022/11/03 04:35:43;;;;;;;;;;;8.50;99.90;;;7.14;100.00;100733.69;5049005;28;19913;-76
2022/11/03 04:38:21;;;;;;;;;;;8.50;99.90;;;7.13;100.00;100743.72;5054399;28;19959;-77
2022/11/03 04:40:53;;;;;;;;;;;8.50;99.90;;;7.19;100.00;100739.41;5048778;28;19945;-76
2022/11/03 04:43:21;;;;;;;;;;;8.50;99.90;;;7.15;100.00;100740.78;5060236;28;21156;-75
2022/11/03 04:45:48;;;;;;;;;;;8.60;99.90;;;7.18;100.00;100740.44;5064522;28;19916;-77
2022/11/03 04:48:24;;;;;;;;;;;8.60;99.90;;;7.10;100.00;100744.09;5057803;28;19934;-76
2022/11/03 04:50:56;;;;;;;;;;;8.50;99.90;;;7.08;100.00;100729.91;5066433;28;19917;-76
2022/11/03 04:53:23;;;;;;;;;;;8.50;99.90;;;7.07;100.00;100728.22;5060726;28;19916;-75
2022/11/03 04:55:52;;;;;;;;;;;8.50;99.90;;;7.10;100.00;100727.81;5061177;28;19922;-76
2022/11/03 04:58:32;;;;;;;;;;;8.40;99.90;;;7.09;100.00;100726.16;5062922;28;20036;-75
2022/11/03 05:01:00;;;;;;;;;;;8.50;99.90;;;7.09;100.00;100728.00;5063972;28;19919;-75
2022/11/03 05:03:34;;;;;;;;;;;8.50;99.90;;;7.13;100.00;100726.59;5061066;28;20358;-75
2022/11/03 05:06:10;;;;;;;;;;;8.50;99.90;;;7.02;100.00;100712.50;5061661;28;20376;-75
2022/11/03 05:08:35;;;;;;;;;;;8.40;99.90;;;6.99;100.00;100718.31;5064892;28;19977;-74
2022/11/03 05:11:13;;;;;;;;;;;8.40;99.90;;;7.10;100.00;100710.69;5067141;28;19963;-74
2022/11/03 05:13:39;;;;;;;;;;;8.40;99.90;;;7.14;100.00;100706.56;5064987;28;19927;-74
2022/11/03 05:16:05;;;;;;;;;;;8.50;99.90;;;7.13;100.00;100711.16;5062267;28;19916;-76
2022/11/03 05:18:35;;;;;;;;;;;8.50;99.90;;;7.02;100.00;100708.94;5067063;28;20284;-75
2022/11/03 05:21:14;;;;;;;;;;;8.40;99.90;;;6.93;100.00;100704.66;5058162;28;19913;-77
2022/11/03 05:23:51;;;;;;;;;;;8.30;99.90;;;6.81;100.00;100697.03;5063072;28;19960;-76
2022/11/03 05:26:21;;;;;;;;;;;8.20;99.90;;;6.88;100.00;100694.38;5064066;28;19935;-75
2022/11/03 05:28:54;;;;;;;;;;;8.20;99.90;;;6.88;100.00;100697.09;5062777;28;19912;-76
2022/11/03 05:31:26;;;;;;;;;;;8.30;99.90;;;6.80;100.00;100687.22;5063417;28;19924;-76
2022/11/03 05:33:55;;;;;;;;;;;8.20;99.90;;;6.79;100.00;100693.69;5066011;28;19959;-76
2022/11/03 05:36:27;;;;;;;;;;;8.20;99.90;;;6.76;100.00;100681.34;5064857;28;19992;-76
2022/11/03 05:38:57;;;;;;;;;;;8.10;99.90;;;6.73;100.00;100687.13;5064119;28;19923;-76
2022/11/03 05:41:29;;;;;;;;;;;8.10;99.90;;;6.70;100.00;100681.25;5062884;28;20377;-76
2022/11/03 05:44:11;;;;;;;;;;;8.10;99.90;;;6.71;100.00;100686.50;5034335;28;20283;-76
2022/11/03 05:46:36;;;;;;;;;;;8.10;99.90;;;6.81;100.00;100682.63;5061610;28;20434;-76
2022/11/03 05:49:05;;;;;;;;;;;8.20;99.90;;;6.98;100.00;100680.50;5051457;28;19917;-76
2022/11/03 05:51:38;;;;;;;;;;;8.30;99.90;;;7.27;100.00;100684.16;5063897;28;20346;-73
2022/11/03 05:54:12;;;;;;;;;;;8.50;99.90;;;7.51;100.00;100673.91;5055049;28;20319;-74
2022/11/03 05:56:37;;;;;;;;;;;8.80;99.90;;;7.68;100.00;100675.31;5053110;28;19924;-75
2022/11/03 05:59:03;;;;;;;;;;;9.00;99.90;;;7.81;99.68;100679.16;5051737;28;19920;-74
2022/11/03 06:01:36;;;;;;;;;;;9.10;99.90;;;7.74;99.81;100676.41;5051326;28;19912;-75
2022/11/03 06:04:16;;;;;;;;;;;9.10;99.90;;;7.69;99.93;100676.16;5055371;28;20011;-77
2022/11/03 06:06:41;;;;;;;;;;;9.10;99.90;;;7.73;99.89;100683.72;5052278;28;19959;-76
2022/11/03 06:09:15;;;;;;;;;;;9.10;99.90;;;7.70;100.00;100677.84;5062541;28;19952;-76
2022/11/03 06:11:42;;;;;;;;;;;9.10;99.90;;;7.71;100.00;100679.53;5054862;28;20323;-76
2022/11/03 06:14:17;;;;;;;;;;;9.10;99.90;;;7.69;100.00;100674.28;5050438;28;19952;-76
2022/11/03 06:16:46;;;;;;;;;;;9.10;99.90;;;7.61;100.00;100675.25;5055351;28;19947;-77
2022/11/03 06:19:37;;;;;;;;;;;9.00;99.90;;;7.55;100.00;100675.19;5056693;28;19959;-76
2022/11/03 06:22:23;;;;;;;;;;;8.90;99.90;;;7.43;100.00;100666.78;5050882;28;19995;-76
2022/11/03 06:24:51;;;;;;;;;;;8.90;99.90;;;7.47;100.00;100668.06;5049445;28;20397;-77
2022/11/03 06:27:22;;;;;;;;;;;8.80;99.90;;;7.56;100.00;100661.44;5053922;28;19967;-80
2022/11/03 06:30:02;;;;;;;;;;;8.90;99.90;;;7.65;100.00;100664.84;5056144;28;19920;-78
2022/11/03 06:32:29;;;;;;;;;;;9.00;99.90;;;7.75;100.00;100662.63;5055836;28;20391;-81
2022/11/03 06:34:56;;;;;;;;;;;9.10;99.90;;;7.79;100.00;100673.94;5063488;28;19919;-81
2022/11/03 06:37:26;;;;;;;;;;;9.10;99.90;;;7.78;100.00;100669.56;5063221;28;19923;-78
2022/11/03 06:40:10;;;;;;;;;;;9.20;99.90;;;7.75;100.00;100661.81;5063410;28;20014;-80
2022/11/03 06:42:39;;;;;;;;;;;9.10;99.90;;;7.62;100.00;100657.13;5052958;28;20269;-80
2022/11/03 06:45:17;;;;;;;;;;;9.10;99.90;;;7.54;100.00;100659.94;5050992;28;20009;-80
2022/11/03 06:47:43;;;;;;;;;;;9.00;99.90;;;7.44;100.00;100652.16;5055344;28;20257;-77
2022/11/03 06:50:26;;;;;;;;;;;8.90;99.90;;;7.43;100.00;100647.78;5053991;28;19916;-76
2022/11/03 06:52:53;;;;;;;;;;;8.90;99.90;;;7.40;100.00;100656.28;5050632;28;19970;-76
2022/11/03 06:55:34;;;;;;;;;;;8.80;99.90;;;7.42;100.00;100659.63;5049834;28;19986;-76
2022/11/03 06:58:23;;;;;;;;;;;8.80;99.90;;;7.42;100.00;100657.78;5049991;28;19943;-77
2022/11/03 07:00:48;;;;;;;;;;;8.80;99.90;;;7.47;100.00;100651.78;5050001;28;19999;-76
2022/11/03 07:03:23;;;;;;;;;;;8.90;99.90;;;7.46;100.00;100647.38;5049417;28;20429;-76
2022/11/03 07:05:49;;;;;;;;;;;8.90;99.90;;;7.46;100.00;100650.91;5049882;28;20031;-76
2022/11/03 07:08:21;;;;;;;;;;;8.90;99.90;;;7.45;100.00;100648.41;5049596;28;20012;-76
2022/11/03 07:10:49;;;;;;;;;;;8.90;99.90;;;7.48;100.00;100640.69;5050509;28;20069;-76
2022/11/03 07:13:21;;;;;;;;;;;8.90;99.90;;;7.47;100.00;100641.75;5049535;28;20379;-76
2022/11/03 07:15:47;;;;;;;;;;;8.90;99.90;;;7.52;100.00;100641.16;5056399;28;20471;-76
2022/11/03 07:18:20;;;;;;;;;;;8.90;99.90;;;7.52;100.00;100638.44;5049790;28;19916;-76
2022/11/03 07:20:47;;;;;;;;;;;8.90;99.90;;;7.49;100.00;100638.84;5048550;28;20361;-76
2022/11/03 07:23:18;;;;;;;;;;;8.90;99.90;;;7.60;100.00;100632.84;5049779;28;19920;-76
2022/11/03 07:25:53;;;;;;;;;;;9.00;99.90;;;7.63;100.00;100629.75;5050369;28;19958;-76
2022/11/03 07:28:47;;;;;;;;;;;9.00;99.90;;;7.74;100.00;100628.34;5049313;28;19970;-76
2022/11/03 07:31:17;;;;;;;;;;;9.10;99.90;;;7.80;100.00;100623.16;5048593;28;19916;-77
2022/11/03 07:33:44;;;;;;;;;;;9.20;99.90;;;7.83;100.00;100620.91;5052642;28;19984;-78
2022/11/03 07:36:17;;;;;;;;;;;9.30;99.90;;;7.91;100.00;100628.88;5058344;28;19923;-76
2022/11/03 07:38:45;;;;;;;;;;;9.30;99.90;;;8.04;100.00;100621.88;5056015;28;20567;-76
2022/11/03 07:41:17;;;;;;;;;;;9.40;99.90;;;8.17;100.00;100624.63;5057164;28;19912;-80
2022/11/03 07:43:55;;;;;;;;;;;9.50;99.90;;;8.25;100.00;100625.53;5062258;28;19948;-78
2022/11/03 07:46:23;;;;;;;;;;;9.60;99.90;;;8.37;100.00;100631.22;5067103;28;19919;-80
2022/11/03 07:48:52;;;;;;;;;;;9.70;99.90;;;8.46;100.00;100617.22;5076357;28;19916;-80
2022/11/03 07:51:22;;;;;;;;;;;9.80;99.90;;;8.52;99.93;100612.06;5070218;28;19916;-80
2022/11/03 07:54:22;;;;;;;;;;;9.90;99.90;;;8.58;100.00;100613.97;5063516;28;19920;-82
2022/11/03 07:57:11;;;;;;;;;;;10.00;99.90;;;8.58;100.00;100598.47;5059376;28;19948;-82
2022/11/03 07:59:42;;;;;;;;;;;10.00;99.90;;;8.65;99.63;100601.22;5062549;28;20380;-82
2022/11/03 08:02:31;;;;;;;;;;;10.10;99.90;;;8.73;98.49;100592.84;5061477;28;19924;-82
2022/11/03 08:04:57;;;;;;;;;;;10.10;99.90;;;8.93;96.07;100589.34;5062753;28;20381;-82
2022/11/03 08:07:23;;;;;;;;;;;10.30;99.90;;;9.01;96.00;100580.97;5058216;28;19923;-81
2022/11/03 08:09:49;;;;;;;;;;;10.40;99.90;;;9.08;95.25;100580.97;5049099;28;19920;-83
2022/11/03 08:12:15;;;;;;;;;;;10.50;99.90;;;9.10;95.46;100575.34;5059478;28;19921;-82
2022/11/03 08:14:40;;;;;;;;;;;10.50;99.90;;;9.21;95.30;100574.69;5059727;28;19923;-80
2022/11/03 08:17:06;;;;;;;;;;;10.60;99.90;;;9.28;95.04;100563.81;5059111;28;19951;-83
2022/11/03 08:19:32;;;;;;;;;;;10.70;99.90;;;9.34;95.34;100566.53;5063678;28;19916;-81
2022/11/03 08:22:03;;;;;;;;;;;10.70;99.90;;;9.43;94.54;100561.72;5058638;28;19959;-84
2022/11/03 08:24:29;;;;;;;;;;;10.80;99.90;;;9.50;94.10;100568.00;5059912;28;20408;-79
2022/11/03 08:26:54;;;;;;;;;;;10.90;99.90;;;9.52;93.88;100551.41;5061645;28;19973;-79
2022/11/03 08:29:20;;;;;;;;;;;10.90;99.90;;;9.55;94.34;100552.91;5061084;28;19928;-81
2022/11/03 08:31:46;;;;;;;;;;;11.00;99.90;;;9.59;93.53;100543.25;5061341;28;20623;-81
2022/11/03 08:34:11;;;;;;;;;;;11.00;99.90;;;9.73;91.98;100544.06;5058335;28;19948;-82
2022/11/03 08:36:37;;;;;;;;;;;11.10;99.90;;;9.77;92.14;100539.84;5060710;28;20035;-83
2022/11/03 08:39:04;;;;;;;;;;;11.20;99.90;;;9.89;93.32;100535.41;5051353;28;19913;-79
2022/11/03 08:41:30;;;;;;;;;;;11.30;99.90;;;9.99;90.75;100537.69;5049230;28;19916;-80
2022/11/03 08:43:56;;;;;;;;;;;11.40;99.90;;;10.00;90.51;100530.34;5050365;28;20471;-81
2022/11/03 08:46:22;;;;;;;;;;;11.40;99.90;;;10.17;89.44;100528.81;5049029;28;19916;-80
2022/11/03 08:48:47;;;;;;;;;;;11.50;99.90;;;10.27;89.24;100511.13;5004783;23;20020;-78
2022/11/03 08:51:14;;;;;;;;;;;11.60;99.90;;;10.31;88.27;100513.22;4975958;28;20044;-81
2022/11/03 08:53:41;;;;;;;;;;;11.70;99.90;;;10.38;89.80;100513.19;4977991;28;20295;-82
2022/11/03 08:56:07;;;;;;;;;;;11.80;99.90;;;10.41;88.43;100504.59;4972780;28;20268;-81
2022/11/03 08:58:32;;;;;;;;;;;11.80;99.90;;;10.38;87.56;100496.81;4977674;28;20023;-79
2022/11/03 09:00:58;;;;;;;;;;;11.80;99.90;;;10.37;88.45;100492.41;4975021;28;19922;-79
2022/11/03 09:03:24;;;;;;;;;;;11.80;99.90;;;10.46;88.33;100487.53;4977000;28;19914;-79
2022/11/03 09:05:50;;;;;;;;;;;11.90;99.90;;;10.50;87.70;100483.34;4976627;28;19914;-81
2022/11/03 09:08:15;;;;;;;;;;;11.90;99.90;;;10.58;87.01;100482.22;4975849;28;19921;-81
2022/11/03 09:10:41;;;;;;;;;;;12.00;99.90;;;10.70;87.11;100480.47;4973431;28;19918;-81
2022/11/03 09:13:07;;;;;;;;;;;12.10;99.90;;;10.88;86.41;100487.06;4975658;28;19914;-80
2022/11/03 09:15:33;;;;;;;;;;;12.30;99.90;;;10.96;85.67;100467.66;4985925;28;19920;-81
2022/11/03 09:17:59;;;;;;;;;;;12.40;99.90;;;11.03;84.67;100473.06;4974475;28;19914;-81
2022/11/03 09:20:24;;;;;;;;;;;12.40;99.90;;;11.21;84.82;100464.06;4970915;28;19914;-82
2022/11/03 09:22:50;;;;;;;;;;;12.60;99.90;;;11.31;84.14;100472.56;4975025;28;19960;-81
2022/11/03 09:25:16;;;;;;;;;;;12.70;99.90;;;11.51;82.71;100469.59;4973760;28;20109;-83
2022/11/03 09:27:41;;;;;;;;;;;12.90;99.90;;;11.66;81.97;100468.41;4975143;28;20264;-82
2022/11/03 09:30:08;;;;;;;;;;;13.10;99.90;;;11.71;82.46;100465.81;4983027;28;19918;-81
2022/11/03 09:32:34;;;;;;;;;;;13.30;99.90;;;11.93;81.37;100454.41;4973427;28;19925;-83
2022/11/03 09:35:00;;;;;;;;;;;13.70;99.90;;;12.24;78.29;100455.25;4976097;28;19967;-80
2022/11/03 09:37:25;;;;;;;;;;;14.10;99.90;;;12.05;78.59;100457.22;4976482;28;20012;-82
2022/11/03 09:39:51;;;;;;;;;;;14.00;99.90;;;12.07;79.38;100452.34;4970929;28;19914;-78
2022/11/03 09:42:17;;;;;;;;;;;13.80;99.90;;;12.31;77.90;100452.44;4977663;28;20007;-82
2022/11/03 09:44:45;;;;;;;;;;;13.90;99.90;;;13.04;73.66;100450.41;4983682;28;19913;-78
2022/11/03 09:47:21;;;;;;;;;;;14.40;99.90;;;13.42;71.19;100445.50;4986168;28;19914;-79
2022/11/03 09:49:46;;;;;;;;;;;14.90;99.90;;;13.91;68.42;100438.81;4973946;28;19953;-83
2022/11/03 09:52:16;;;;;;;;;;;15.40;99.90;;;14.38;67.27;100437.78;4979879;28;19998;-81
2022/11/03 09:54:42;;;;;;;;;;;15.70;99.90;;;15.28;62.32;100430.72;4977499;28;19984;-82
2022/11/03 09:57:11;;;;;;;;;;;16.40;99.90;;;15.14;61.23;100443.97;4979833;28;19956;-80
2022/11/03 09:59:39;;;;;;;;;;;16.60;99.90;;;14.89;62.86;100440.56;4981314;28;19913;-81
2022/11/03 10:02:18;;;;;;;;;;;16.40;99.90;;;15.74;61.13;100438.72;4978099;28;20298;-83
2022/11/03 10:04:44;;;;;;;;;;;16.60;99.90;;;15.20;61.74;100423.72;4975492;28;19921;-83
2022/11/03 10:07:09;;;;;;;;;;;16.70;99.90;;;15.08;62.99;100405.41;4976669;28;19914;-82
2022/11/03 10:09:40;;;;;;;;;;;16.60;99.90;;;14.28;67.53;100374.47;4978470;28;19937;-78
2022/11/03 10:12:08;;;;;;;;;;;16.10;99.90;;;13.32;72.18;100380.34;4973070;28;20089;-79
2022/11/03 10:14:34;;;;;;;;;;;15.20;99.90;;;13.13;72.22;100398.00;4973489;28;20472;-80
2022/11/03 10:16:59;;;;;;;;;;;14.90;99.90;;;12.89;74.11;100408.97;4980869;28;19949;-79
2022/11/03 10:19:25;;;;;;;;;;;14.50;99.90;;;12.74;75.94;100382.94;4982873;28;20009;-80
2022/11/03 10:21:51;;;;;;;;;;;14.30;99.90;;;12.47;77.26;100394.31;4982996;28;19917;-83
2022/11/03 10:24:17;;;;;;;;;;;14.10;99.90;;;12.42;77.04;100409.78;4980635;28;20379;-82
2022/11/03 10:26:44;;;;;;;;;;;13.90;99.90;;;12.17;77.92;100397.09;4978885;28;19918;-81
2022/11/03 10:29:18;;;;;;;;;;;13.70;99.90;;;12.07;78.92;100393.03;4974081;28;19914;-83
2022/11/03 10:31:51;;;;;;;;;;;13.50;99.90;;;11.84;79.34;100382.81;4978685;28;19918;-81
2022/11/03 10:34:36;;;;;;;;;;;13.30;99.90;;;11.98;82.07;100399.84;4984410;28;20370;-82
2022/11/03 10:37:25;;;;;;;;;;;13.30;99.90;;;11.94;82.53;100394.03;4980368;28;19918;-81
2022/11/03 10:39:57;;;;;;;;;;;13.40;99.90;;;11.93;80.61;100392.38;4975850;28;19918;-82
2022/11/03 10:42:25;;;;;;;;;;;13.30;99.90;;;12.01;81.68;100393.13;4978930;28;19972;-83
2022/11/03 10:45:09;;;;;;;;;;;13.40;99.90;;;12.00;80.79;100380.50;4980567;28;19934;-82
2022/11/03 10:47:34;;;;;;;;;;;13.40;99.90;;;12.01;82.55;100363.06;4976120;28;19914;-83
2022/11/03 10:50:30;;;;;;;;;;;13.50;99.90;;;12.32;82.69;100363.84;4980443;28;19921;-84
2022/11/03 10:52:56;;;;;;;;;;;13.60;99.90;;;12.43;79.42;100356.72;4964592;28;19965;-82
2022/11/03 10:55:23;;;;;;;;;;;13.80;99.90;;;12.31;79.62;100362.19;4980373;28;20458;-83
2022/11/03 10:57:50;;;;;;;;;;;13.80;99.90;;;12.27;80.74;100352.78;4976758;28;20037;-82
2022/11/03 11:00:18;;;;;;;;;;;13.70;99.90;;;11.89;81.33;100341.94;4980801;28;19988;-83
2022/11/03 11:02:45;;;;;;;;;;;13.50;99.90;;;11.96;81.27;100344.59;4974846;28;19914;-81
2022/11/03 11:05:20;;;;;;;;;;;13.40;99.90;;;11.96;82.34;100335.56;4979458;28;19977;-82
2022/11/03 11:07:49;;;;;;;;;;;13.50;99.90;;;12.03;81.13;100333.59;4981779;28;20080;-81
2022/11/03 11:10:19;;;;;;;;;;;13.50;99.90;;;12.05;82.17;100329.53;4984969;28;20271;-83
2022/11/03 11:13:24;;;;;;;;;;;13.50;99.90;;;12.08;81.56;100341.91;4973938;28;19942;-83
2022/11/03 11:16:00;;;;;;;;;;;13.50;99.90;;;12.17;81.19;100328.75;4983331;28;19929;-84
2022/11/03 11:18:28;;;;;;;;;;;13.50;99.90;;;12.14;81.39;100331.94;4985083;28;19917;-82
2022/11/03 11:20:55;;;;;;;;;;;13.60;99.90;;;12.27;80.56;100326.25;4976887;28;19950;-80
2022/11/03 11:23:27;;;;;;;;;;;13.60;99.90;;;12.48;78.93;100324.84;4981691;28;19921;-78
2022/11/03 11:26:08;;;;;;;;;;;13.80;99.90;;;12.47;80.49;100308.66;4973740;28;20354;-80
2022/11/03 11:28:38;;;;;;;;;;;13.90;99.90;;;12.65;77.67;100302.22;4962118;28;20413;-78
2022/11/03 11:31:23;;;;;;;;;;;14.00;99.90;;;12.55;78.33;100293.81;4982817;28;19917;-77
2022/11/03 11:33:48;;;;;;;;;;;14.00;99.90;;;12.51;78.53;100285.22;4971495;28;20626;-80
2022/11/03 11:36:23;;;;;;;;;;;14.00;99.90;;;12.52;78.48;100276.78;4986278;28;19920;-78
2022/11/03 11:38:51;;;;;;;;;;;13.90;99.90;;;12.65;77.82;100266.66;4978839;28;19924;-80